Time;durP1;ratioP1;P1;durP2;ratioP2;P2;SDS_P1;SDS_P2;PMS_P1;PMS_P2;Temp;Humidity;BMP_temperature;BMP_pressure;BME280_temperature;BME280_humidity;BME280_pressure;Samples;Min_cycle;Max_cycle;Signal;HPM_P1;HPM_P2
2023/07/13 00:01:16;;;;;;;11.03;4.90;;;27.50;99.90;;;;;;5106694;28;21128;-75
2023/07/13 00:03:41;;;;;;;9.33;6.10;;;27.50;99.90;;;;;;5105281;28;20577;-75
2023/07/13 00:06:08;;;;;;;9.57;5.63;;;27.50;99.90;;;;;;5106588;28;20519;-76
2023/07/13 00:08:34;;;;;;;8.63;5.03;;;27.50;99.90;;;;;;5104990;28;20705;-76
2023/07/13 00:11:01;;;;;;;11.47;6.50;;;27.50;99.90;;;;;;5105789;28;20939;-82
2023/07/13 00:13:27;;;;;;;10.20;5.57;;;27.50;99.90;;;;;;5106754;28;20408;-75
2023/07/13 00:15:53;;;;;;;8.27;5.90;;;27.40;99.90;;;;;;5106196;28;21099;-82
2023/07/13 00:18:20;;;;;;;10.80;5.73;;;27.40;99.90;;;;;;5105226;28;20818;-81
2023/07/13 00:20:45;;;;;;;8.00;5.30;;;27.30;99.90;;;;;;5104524;28;20501;-82
2023/07/13 00:23:11;;;;;;;9.53;5.63;;;27.20;99.90;;;;;;5106198;28;20438;-75
2023/07/13 00:25:37;;;;;;;9.80;6.40;;;27.10;99.90;;;;;;5105886;28;20275;-75
2023/07/13 00:28:03;;;;;;;7.13;5.43;;;27.00;99.90;;;;;;5105839;28;21001;-78
2023/07/13 00:30:29;;;;;;;9.10;5.13;;;27.00;99.90;;;;;;5104651;28;20196;-82
2023/07/13 00:32:54;;;;;;;7.50;5.43;;;27.00;99.90;;;;;;5106379;28;20213;-83
2023/07/13 00:35:20;;;;;;;9.63;5.43;;;27.00;99.90;;;;;;5106098;28;20172;-75
2023/07/13 00:37:46;;;;;;;14.70;6.37;;;27.00;99.90;;;;;;5106477;28;20644;-75
2023/07/13 00:40:17;;;;;;;14.63;6.27;;;27.00;99.90;;;;;;5105805;28;20240;-75
2023/07/13 00:42:43;;;;;;;7.40;5.97;;;27.00;99.90;;;;;;5106384;28;20243;-75
2023/07/13 00:45:12;;;;;;;12.60;6.83;;;26.90;99.90;;;;;;5104368;28;20420;-75
2023/07/13 00:47:41;;;;;;;8.67;6.33;;;26.90;99.90;;;;;;5106497;28;20176;-75
2023/07/13 00:50:16;;;;;;;12.00;7.03;;;26.80;99.90;;;;;;5103913;28;20463;-83
2023/07/13 00:52:45;;;;;;;9.60;6.00;;;26.80;99.90;;;;;;5106217;28;20423;-82
2023/07/13 00:55:12;;;;;;;9.00;5.83;;;26.80;99.90;;;;;;5105733;28;20400;-75
2023/07/13 00:57:38;;;;;;;11.40;6.30;;;26.80;99.90;;;;;;5105923;28;20574;-75
2023/07/13 01:00:09;;;;;;;13.87;6.17;;;26.80;99.90;;;;;;5104157;28;20489;-82
2023/07/13 01:02:41;;;;;;;13.00;6.77;;;26.70;99.90;;;;;;5106420;28;20227;-82
2023/07/13 01:05:11;;;;;;;10.13;6.63;;;26.70;99.90;;;;;;5103868;28;21066;-82
2023/07/13 01:07:37;;;;;;;13.43;7.07;;;26.70;99.90;;;;;;5106186;28;20976;-82
2023/07/13 01:10:04;;;;;;;14.57;6.23;;;26.80;99.90;;;;;;5105413;28;20396;-75
2023/07/13 01:12:30;;;;;;;13.93;7.57;;;26.70;99.90;;;;;;5104580;28;20816;-83
2023/07/13 01:14:58;;;;;;;9.93;6.10;;;26.70;99.90;;;;;;5105256;28;20404;-75
2023/07/13 01:17:24;;;;;;;13.53;6.13;;;26.80;99.90;;;;;;5104495;28;20589;-75
2023/07/13 01:19:49;;;;;;;10.43;5.90;;;26.80;99.90;;;;;;5105285;28;20570;-80
2023/07/13 01:22:17;;;;;;;14.30;6.30;;;26.80;99.90;;;;;;5106964;28;20478;-83
2023/07/13 01:24:45;;;;;;;8.50;5.70;;;26.80;99.90;;;;;;5107848;28;20179;-75
2023/07/13 01:27:13;;;;;;;10.47;5.97;;;26.80;99.90;;;;;;5108187;28;20952;-76
2023/07/13 01:29:43;;;;;;;14.47;6.93;;;26.80;99.90;;;;;;5107991;28;21107;-82
2023/07/13 01:32:12;;;;;;;9.73;5.67;;;26.80;99.90;;;;;;5108215;28;20483;-75
2023/07/13 01:34:38;;;;;;;12.77;6.70;;;26.80;99.90;;;;;;5109522;28;20781;-82
2023/07/13 01:37:07;;;;;;;12.13;6.43;;;26.80;99.90;;;;;;5109366;28;20469;-82
2023/07/13 01:39:32;;;;;;;12.00;6.70;;;26.80;99.90;;;;;;5109382;28;20217;-75
2023/07/13 01:41:58;;;;;;;9.23;5.40;;;26.90;99.90;;;;;;5109364;28;20841;-75
2023/07/13 01:44:24;;;;;;;15.53;5.93;;;26.90;99.90;;;;;;5109040;28;20172;-82
2023/07/13 01:46:50;;;;;;;9.80;6.63;;;26.90;99.90;;;;;;5107828;28;20200;-83
2023/07/13 01:49:16;;;;;;;14.43;7.10;;;26.90;99.90;;;;;;5108676;28;20779;-78
2023/07/13 01:51:41;;;;;;;11.73;6.27;;;26.90;99.90;;;;;;5108281;27;20227;-75
2023/07/13 01:54:07;;;;;;;10.90;6.27;;;26.90;99.90;;;;;;5107949;28;20572;-78
2023/07/13 01:56:33;;;;;;;8.80;5.97;;;26.80;99.90;;;;;;5109306;28;20631;-82
2023/07/13 01:58:58;;;;;;;10.30;6.40;;;26.80;99.90;;;;;;5107406;28;20172;-80
2023/07/13 02:01:24;;;;;;;14.60;7.13;;;26.80;99.90;;;;;;5108890;28;20303;-82
2023/07/13 02:03:50;;;;;;;16.13;7.47;;;26.80;99.90;;;;;;5108280;28;20368;-75
2023/07/13 02:06:15;;;;;;;10.00;6.57;;;26.80;99.90;;;;;;5108676;28;20260;-76
2023/07/13 02:08:42;;;;;;;13.70;6.40;;;26.80;99.90;;;;;;5108763;28;20178;-75
2023/07/13 02:11:08;;;;;;;11.07;7.23;;;26.70;99.90;;;;;;5107069;28;20200;-82
2023/07/13 02:13:34;;;;;;;10.13;6.30;;;26.60;99.90;;;;;;5108578;28;20432;-75
2023/07/13 02:16:00;;;;;;;8.00;6.23;;;26.50;99.90;;;;;;5107265;28;20443;-82
2023/07/13 02:18:26;;;;;;;16.60;7.80;;;26.50;99.90;;;;;;5108522;27;20411;-81
2023/07/13 02:20:51;;;;;;;9.07;6.20;;;26.40;99.90;;;;;;5108528;28;20246;-82
2023/07/13 02:23:17;;;;;;;8.07;7.07;;;26.40;99.90;;;;;;5106933;28;20675;-79
2023/07/13 02:25:43;;;;;;;13.13;6.20;;;26.40;99.90;;;;;;5108126;28;20952;-82
2023/07/13 02:28:09;;;;;;;12.20;7.50;;;26.40;99.90;;;;;;5108347;28;20425;-77
2023/07/13 02:30:35;;;;;;;12.67;6.67;;;26.40;99.90;;;;;;5108223;28;20240;-75
2023/07/13 02:33:01;;;;;;;9.60;6.87;;;26.40;99.90;;;;;;5107676;28;20184;-82
2023/07/13 02:35:26;;;;;;;19.13;7.30;;;26.40;99.90;;;;;;5108105;28;20427;-75
2023/07/13 02:37:52;;;;;;;11.60;6.23;;;26.40;99.90;;;;;;5108265;28;20186;-83
2023/07/13 02:40:18;;;;;;;12.27;7.30;;;26.40;99.90;;;;;;5108002;28;20729;-82
2023/07/13 02:42:43;;;;;;;15.10;6.97;;;26.30;99.90;;;;;;5107049;28;20180;-75
2023/07/13 02:45:09;;;;;;;9.70;6.10;;;26.30;99.90;;;;;;5107667;28;20228;-82
2023/07/13 02:47:36;;;;;;;14.90;7.77;;;26.30;99.90;;;;;;5106725;28;20598;-82
2023/07/13 02:50:02;;;;;;;12.20;7.40;;;26.30;99.90;;;;;;5105721;28;20463;-82
2023/07/13 02:52:28;;;;;;;13.13;7.30;;;26.30;99.90;;;;;;5107585;28;20850;-75
2023/07/13 02:54:54;;;;;;;13.97;7.43;;;26.20;99.90;;;;;;5105648;28;20407;-82
2023/07/13 02:57:20;;;;;;;8.80;6.43;;;26.00;99.90;;;;;;5106132;28;20264;-82
2023/07/13 02:59:46;;;;;;;20.47;7.27;;;25.90;99.90;;;;;;5106290;28;20233;-82
2023/07/13 03:02:12;;;;;;;12.63;6.80;;;25.90;99.90;;;;;;5106689;28;20552;-82
2023/07/13 03:04:37;;;;;;;11.80;7.10;;;25.80;99.90;;;;;;5106378;28;20400;-75
2023/07/13 03:07:04;;;;;;;9.70;7.60;;;25.80;99.90;;;;;;5106062;28;20461;-75
2023/07/13 03:09:31;;;;;;;14.83;7.03;;;25.80;99.90;;;;;;5105854;28;20178;-82
2023/07/13 03:11:56;;;;;;;11.83;6.53;;;25.80;99.90;;;;;;5105953;28;21077;-75
2023/07/13 03:14:23;;;;;;;16.23;6.90;;;25.80;99.90;;;;;;5107119;28;20491;-76
2023/07/13 03:16:49;;;;;;;11.63;6.90;;;25.80;99.90;;;;;;5107454;28;20200;-82
2023/07/13 03:19:15;;;;;;;11.50;6.50;;;25.80;99.90;;;;;;5107370;28;20928;-82
2023/07/13 03:21:41;;;;;;;25.43;9.80;;;25.80;99.90;;;;;;5107260;28;20483;-83
2023/07/13 03:24:07;;;;;;;11.87;6.77;;;25.90;99.90;;;;;;5105634;28;20229;-76
2023/07/13 03:26:32;;;;;;;16.40;7.90;;;25.90;99.90;;;;;;5107627;28;20203;-82
2023/07/13 03:28:58;;;;;;;15.50;7.47;;;25.90;99.90;;;;;;5107030;28;20444;-82
2023/07/13 03:31:30;;;;;;;14.23;7.50;;;26.00;99.90;;;;;;5107032;28;20268;-75
2023/07/13 03:33:57;;;;;;;12.00;7.17;;;26.00;99.90;;;;;;5105647;28;20180;-75
2023/07/13 03:36:25;;;;;;;10.70;6.20;;;26.00;99.90;;;;;;5107030;28;20447;-82
2023/07/13 03:38:55;;;;;;;13.77;7.00;;;26.00;99.90;;;;;;5105913;28;20455;-75
2023/07/13 03:41:22;;;;;;;7.63;6.63;;;26.00;99.90;;;;;;5107335;28;20960;-79
2023/07/13 03:43:48;;;;;;;15.77;6.93;;;26.00;99.90;;;;;;5106788;28;20471;-82
2023/07/13 03:46:14;;;;;;;13.90;6.97;;;26.10;99.90;;;;;;5106046;28;20447;-75
2023/07/13 03:48:42;;;;;;;15.07;7.00;;;26.20;99.90;;;;;;5106614;28;20764;-82
2023/07/13 03:51:08;;;;;;;11.23;7.00;;;26.20;99.90;;;;;;5105734;28;20463;-75
2023/07/13 03:53:38;;;;;;;15.43;7.00;;;26.20;99.90;;;;;;5106760;28;20404;-78
2023/07/13 03:56:04;;;;;;;11.40;6.73;;;26.20;99.90;;;;;;5106374;28;20294;-75
2023/07/13 03:58:32;;;;;;;14.97;10.47;;;26.20;99.90;;;;;;5105598;28;20499;-75
2023/07/13 04:00:59;;;;;;;11.40;6.93;;;26.20;99.90;;;;;;5105065;28;20484;-75
2023/07/13 04:03:27;;;;;;;16.57;7.97;;;26.30;99.90;;;;;;5106348;28;20437;-82
2023/07/13 04:05:53;;;;;;;12.33;6.63;;;26.30;99.90;;;;;;5105006;28;20440;-83
2023/07/13 04:08:19;;;;;;;11.80;7.50;;;26.30;99.90;;;;;;5105060;28;20490;-81
2023/07/13 04:10:45;;;;;;;15.60;7.07;;;26.30;99.90;;;;;;5104763;28;21046;-75
2023/07/13 04:13:11;;;;;;;13.80;7.47;;;26.30;99.90;;;;;;5104678;28;20934;-76
2023/07/13 04:15:36;;;;;;;13.10;7.73;;;26.40;99.90;;;;;;5106153;28;20203;-75
2023/07/13 04:18:03;;;;;;;11.43;7.07;;;26.40;99.90;;;;;;5106050;28;20259;-75
2023/07/13 04:20:29;;;;;;;13.00;6.30;;;26.40;99.90;;;;;;5105778;28;20520;-82
2023/07/13 04:22:54;;;;;;;9.97;7.90;;;26.40;99.90;;;;;;5104788;28;20416;-82
2023/07/13 04:25:21;;;;;;;14.53;7.30;;;26.40;99.90;;;;;;5106029;28;20418;-82
2023/07/13 04:27:47;;;;;;;14.40;6.90;;;26.30;99.90;;;;;;5106577;28;20228;-82
2023/07/13 04:30:13;;;;;;;15.53;7.03;;;26.40;99.90;;;;;;5104304;28;20956;-82
2023/07/13 04:32:38;;;;;;;14.53;7.80;;;26.40;99.90;;;;;;5105948;28;20683;-75
2023/07/13 04:35:05;;;;;;;11.00;6.63;;;26.30;99.90;;;;;;5105633;28;20211;-75
2023/07/13 04:37:30;;;;;;;12.70;7.27;;;26.30;99.90;;;;;;5106774;28;20227;-82
2023/07/13 04:39:56;;;;;;;12.43;7.37;;;26.30;99.90;;;;;;5104614;28;20498;-81
2023/07/13 04:42:22;;;;;;;12.77;6.70;;;26.30;99.90;;;;;;5093058;28;20241;-75
2023/07/13 04:44:49;;;;;;;13.27;7.30;;;26.20;99.90;;;;;;5085413;28;20456;-78
2023/07/13 04:47:15;;;;;;;9.80;7.00;;;26.20;99.90;;;;;;5087489;28;20726;-75
2023/07/13 04:49:41;;;;;;;10.90;7.10;;;26.30;99.90;;;;;;5104701;28;20459;-75
2023/07/13 04:52:07;;;;;;;13.53;7.60;;;26.40;99.90;;;;;;5105396;28;20279;-82
2023/07/13 04:54:34;;;;;;;16.50;8.33;;;26.50;99.90;;;;;;5104610;28;20183;-82
2023/07/13 04:57:00;;;;;;;13.80;8.43;;;26.50;99.90;;;;;;5100876;28;20461;-82
2023/07/13 04:59:25;;;;;;;18.30;7.90;;;26.60;99.90;;;;;;5101778;28;21000;-82
2023/07/13 05:01:51;;;;;;;15.40;8.30;;;26.60;99.90;;;;;;5102055;28;20207;-81
2023/07/13 05:04:17;;;;;;;17.20;7.83;;;26.70;99.90;;;;;;5103099;28;20183;-82
2023/07/13 05:06:43;;;;;;;18.30;8.80;;;26.80;99.90;;;;;;5109897;28;20282;-76
2023/07/13 05:09:09;;;;;;;15.10;8.40;;;26.90;99.90;;;;;;5107999;28;20184;-76
2023/07/13 05:11:34;;;;;;;13.90;8.17;;;26.90;99.90;;;;;;5109055;28;20206;-82
2023/07/13 05:14:01;;;;;;;22.20;8.17;;;27.00;99.90;;;;;;5097227;28;20798;-80
2023/07/13 05:16:27;;;;;;;15.73;9.80;;;27.00;99.90;;;;;;5104314;28;20214;-75
2023/07/13 05:18:53;;;;;;;19.47;9.70;;;27.10;99.90;;;;;;5101828;28;20605;-81
2023/07/13 05:21:19;;;;;;;13.03;8.13;;;27.10;99.90;;;;;;5100040;28;20849;-81
2023/07/13 09:14:24;;;;;;;2.30;2.10;;;29.30;99.90;;;;;;5128317;27;20605;-81
2023/07/13 09:16:50;;;;;;;3.53;1.60;;;29.50;99.90;;;;;;5109152;27;20466;-75
2023/07/13 09:19:25;;;;;;;3.00;1.80;;;29.50;99.90;;;;;;5104860;28;20953;-81
2023/07/13 09:21:54;;;;;;;1.73;1.63;;;29.60;99.90;;;;;;5105662;28;20595;-84
2023/07/13 09:24:47;;;;;;;1.73;1.63;;;29.70;99.90;;;;;;5106403;28;21114;-75
2023/07/13 09:27:22;;;;;;;1.87;1.77;;;29.70;99.90;;;;;;5103172;28;20470;-81
2023/07/13 09:30:03;;;;;;;4.40;2.30;;;29.80;99.90;;;;;;5104080;28;20769;-75
2023/07/13 09:32:29;;;;;;;2.73;1.80;;;29.90;99.90;;;;;;5104116;28;20665;-81
2023/07/13 09:34:55;;;;;;;2.50;1.70;;;29.90;99.90;;;;;;5105305;27;20512;-75
2023/07/13 09:37:28;;;;;;;6.03;3.83;;;30.00;99.90;;;;;;5105003;28;20457;-81
2023/07/13 09:39:55;;;;;;;37.47;29.73;;;30.00;99.90;;;;;;5107636;27;20463;-82
2023/07/13 09:42:23;;;;;;;3.13;2.33;;;30.10;99.90;;;;;;5101814;28;20965;-75
2023/07/13 09:44:58;;;;;;;2.60;2.07;;;30.10;99.90;;;;;;5114549;27;20927;-81
2023/07/13 09:47:30;;;;;;;2.57;1.80;;;30.20;99.90;;;;;;5110259;28;20472;-81
2023/07/13 09:49:59;;;;;;;1.77;1.67;;;30.20;99.90;;;;;;5106575;28;20489;-82
2023/07/13 09:52:27;;;;;;;2.43;2.03;;;30.20;99.90;;;;;;5102335;28;20491;-75
2023/07/13 09:54:58;;;;;;;2.43;2.23;;;30.20;99.90;;;;;;5100980;28;20685;-83
2023/07/13 09:57:26;;;;;;;1.73;1.60;;;30.20;99.90;;;;;;5112402;28;20459;-75
2023/07/13 09:59:56;;;;;;;2.17;1.97;;;30.30;99.90;;;;;;5104450;28;20471;-75
2023/07/13 10:02:33;;;;;;;2.40;1.67;;;30.30;99.90;;;;;;5100279;28;20455;-80
2023/07/13 10:05:13;;;;;;;1.80;1.70;;;30.40;99.90;;;;;;5094702;28;20573;-80
2023/07/13 10:07:46;;;;;;;2.10;1.83;;;30.30;99.90;;;;;;5100089;27;20450;-76
2023/07/13 10:10:22;;;;;;;1.63;1.53;;;30.40;99.90;;;;;;5104179;27;20436;-80
2023/07/13 10:12:49;;;;;;;2.23;1.80;;;30.30;99.90;;;;;;5094302;28;20564;-75
2023/07/13 10:15:21;;;;;;;3.07;1.83;;;30.10;99.90;;;;;;5105302;27;20422;-80
2023/07/13 10:17:47;;;;;;;2.47;2.03;;;30.20;99.90;;;;;;5113066;28;20456;-80
2023/07/13 10:20:14;;;;;;;2.10;1.80;;;30.30;99.90;;;;;;5108234;28;20521;-76
2023/07/13 10:23:06;;;;;;;1.90;1.70;;;30.50;99.90;;;;;;5107813;28;20543;-75
2023/07/13 10:25:35;;;;;;;1.80;1.70;;;30.70;99.90;;;;;;5087089;28;20533;-80
2023/07/13 10:28:30;;;;;;;5.73;2.10;;;30.60;99.90;;;;;;5088334;28;20755;-80
2023/07/13 10:30:58;;;;;;;2.70;2.00;;;30.60;99.90;;;;;;5086644;28;20435;-75
2023/07/13 10:33:24;;;;;;;2.27;2.07;;;30.60;99.90;;;;;;5091429;28;20494;-75
2023/07/13 10:35:54;;;;;;;1.80;1.70;;;30.70;99.90;;;;;;5089899;28;20658;-80
2023/07/13 10:38:24;;;;;;;4.30;2.10;;;30.80;99.90;;;;;;5087772;28;20566;-80
2023/07/13 10:41:13;;;;;;;4.17;2.37;;;30.90;99.90;;;;;;5095338;28;20503;-75
2023/07/13 10:43:43;;;;;;;3.63;2.40;;;30.90;99.90;;;;;;5091626;28;20558;-75
2023/07/13 10:46:13;;;;;;;2.83;2.50;;;31.00;99.90;;;;;;5093723;28;20442;-75
2023/07/13 10:48:41;;;;;;;2.20;2.00;;;31.00;99.90;;;;;;5087447;27;20809;-75
2023/07/13 10:51:10;;;;;;;2.50;2.27;;;31.10;99.90;;;;;;5085091;28;21049;-75
2023/07/13 10:53:39;;;;;;;2.60;2.40;;;31.10;99.90;;;;;;5087211;28;20521;-80
2023/07/13 10:56:14;;;;;;;2.33;2.17;;;31.20;99.90;;;;;;5091397;28;20432;-80
2023/07/13 10:58:41;;;;;;;4.13;2.33;;;31.20;99.90;;;;;;5087394;28;20457;-80
2023/07/13 11:01:16;;;;;;;2.00;1.90;;;31.20;99.90;;;;;;5089964;28;20420;-75
2023/07/13 11:03:59;;;;;;;3.13;2.30;;;31.30;99.90;;;;;;5096150;28;21019;-80
2023/07/13 11:06:25;;;;;;;2.87;2.40;;;31.30;99.90;;;;;;5083012;28;20482;-80
2023/07/13 11:08:52;;;;;;;3.10;2.43;;;31.30;99.90;;;;;;5087767;28;20464;-80
2023/07/13 11:11:23;;;;;;;3.17;2.90;;;31.30;99.90;;;;;;5091442;28;20173;-79
2023/07/13 11:13:49;;;;;;;2.73;1.77;;;31.30;99.90;;;;;;5093811;28;20726;-80
2023/07/13 11:16:18;;;;;;;2.20;2.03;;;31.40;99.90;;;;;;5087280;28;20472;-75
2023/07/13 11:18:49;;;;;;;2.57;2.37;;;31.40;99.90;;;;;;5087055;28;20195;-76
2023/07/13 11:21:28;;;;;;;2.30;2.07;;;31.40;99.90;;;;;;5084697;28;20514;-75
2023/07/13 11:24:02;;;;;;;2.37;2.17;;;31.50;99.90;;;;;;5090156;28;20442;-79
2023/07/13 11:26:41;;;;;;;3.50;3.00;;;31.50;99.90;;;;;;5091573;28;21694;-80
2023/07/13 11:29:32;;;;;;;2.00;1.90;;;31.50;99.90;;;;;;5095539;28;20443;-80
2023/07/13 11:32:01;;;;;;;3.40;3.10;;;31.60;99.90;;;;;;5079336;28;20468;-75
2023/07/13 11:34:36;;;;;;;2.37;2.17;;;31.60;99.90;;;;;;5095907;28;20439;-75
2023/07/13 11:37:02;;;;;;;3.50;2.40;;;31.60;99.90;;;;;;5100550;28;20971;-80
2023/07/13 11:39:32;;;;;;;2.40;2.20;;;31.60;99.90;;;;;;5095695;28;20420;-75
2023/07/13 11:42:02;;;;;;;3.10;2.60;;;31.60;99.90;;;;;;5092118;28;20456;-80
2023/07/13 11:44:29;;;;;;;3.30;2.87;;;31.70;99.90;;;;;;5096978;28;20963;-80
2023/07/13 11:47:08;;;;;;;2.93;2.73;;;31.70;99.90;;;;;;5097796;28;20838;-74
2023/07/13 11:49:43;;;;;;;3.13;2.53;;;31.70;99.90;;;;;;5101811;28;20415;-76
2023/07/13 11:52:15;;;;;;;4.70;2.43;;;31.80;99.90;;;;;;5083276;28;20566;-82
2023/07/13 11:54:51;;;;;;;3.70;2.83;;;31.80;99.90;;;;;;5090186;28;20431;-76
2023/07/13 11:57:35;;;;;;;3.43;2.63;;;31.80;99.90;;;;;;5097248;28;20870;-75
2023/07/13 12:00:06;;;;;;;2.50;2.30;;;31.80;99.90;;;;;;5095974;27;20781;-82
2023/07/13 12:02:35;;;;;;;3.07;2.87;;;31.80;99.90;;;;;;5093900;28;20460;-81
2023/07/13 12:05:03;;;;;;;2.60;2.23;;;31.90;99.90;;;;;;5088068;28;20693;-76
2023/07/13 12:07:32;;;;;;;2.70;2.50;;;31.90;99.90;;;;;;5089059;28;20460;-82
2023/07/13 12:10:10;;;;;;;3.00;2.67;;;32.00;99.90;;;;;;5093060;28;20891;-82
2023/07/13 12:12:37;;;;;;;3.43;3.13;;;31.90;99.90;;;;;;5091534;28;20889;-82
2023/07/13 12:15:12;;;;;;;2.57;2.37;;;31.90;99.90;;;;;;5090940;28;20465;-82
2023/07/13 12:17:38;;;;;;;2.77;2.57;;;31.90;99.90;;;;;;5086685;28;20528;-76
2023/07/13 12:20:23;;;;;;;3.17;2.80;;;31.90;99.90;;;;;;5095528;28;20424;-81
2023/07/13 12:22:50;;;;;;;3.60;3.30;;;31.90;99.90;;;;;;5090693;28;20413;-76
2023/07/13 12:25:17;;;;;;;2.73;2.53;;;32.00;99.90;;;;;;5084234;28;20428;-76
2023/07/13 12:27:47;;;;;;;3.17;2.87;;;32.00;99.90;;;;;;5097961;28;20519;-76
2023/07/13 12:30:35;;;;;;;4.43;3.00;;;32.00;99.90;;;;;;5091447;28;20432;-82
2023/07/13 12:33:12;;;;;;;4.00;3.47;;;32.10;99.80;;;;;;5098940;28;20480;-75
2023/07/13 12:35:52;;;;;;;2.80;2.60;;;32.10;99.90;;;;;;5091394;28;20426;-76
2023/07/13 12:38:18;;;;;;;4.00;3.20;;;32.10;99.90;;;;;;5088014;28;20460;-82
2023/07/13 12:40:44;;;;;;;5.00;3.37;;;32.10;99.90;;;;;;5092836;28;21039;-81
2023/07/13 12:43:14;;;;;;;3.83;2.73;;;32.10;99.90;;;;;;5092862;28;20667;-76
2023/07/13 12:46:15;;;;;;;3.47;3.27;;;32.00;99.90;;;;;;5095202;28;20432;-76
2023/07/13 12:48:41;;;;;;;3.73;3.43;;;32.10;99.80;;;;;;5088797;28;20505;-75
2023/07/13 12:51:11;;;;;;;6.77;3.80;;;32.10;99.70;;;;;;5088880;28;20432;-82
2023/07/13 12:53:47;;;;;;;5.07;3.60;;;32.20;99.60;;;;;;5092005;28;20514;-82
2023/07/13 12:56:21;;;;;;;5.50;3.90;;;32.20;99.40;;;;;;5097894;28;20439;-75
2023/07/13 12:58:50;;;;;;;4.47;3.30;;;32.20;99.20;;;;;;5093589;28;20987;-76
2023/07/13 13:01:17;;;;;;;4.20;3.70;;;32.20;99.20;;;;;;5097810;28;20719;-82
2023/07/13 13:03:52;;;;;;;4.40;3.20;;;32.10;99.00;;;;;;5084292;28;20452;-76
2023/07/13 13:06:23;;;;;;;3.53;3.20;;;32.20;99.10;;;;;;5092329;28;20527;-76
2023/07/13 13:08:59;;;;;;;4.93;3.87;;;32.20;98.90;;;;;;5086364;28;20490;-82
2023/07/13 13:11:26;;;;;;;4.27;3.20;;;32.20;98.80;;;;;;5085367;28;20437;-76
2023/07/13 13:13:52;;;;;;;5.17;3.57;;;32.30;98.70;;;;;;5087064;28;20503;-75
2023/07/13 13:16:36;;;;;;;4.23;3.57;;;32.30;98.60;;;;;;5084227;28;20490;-82
2023/07/13 13:19:26;;;;;;;4.17;3.73;;;32.30;98.50;;;;;;5090584;28;20440;-75
2023/07/13 13:21:56;;;;;;;6.63;3.73;;;32.40;98.00;;;;;;5091866;28;20452;-76
2023/07/13 13:24:24;;;;;;;4.00;3.40;;;32.40;97.70;;;;;;5088051;28;20805;-76
2023/07/13 13:26:52;;;;;;;4.00;3.50;;;32.40;97.80;;;;;;5089023;28;21144;-83
2023/07/13 13:29:26;;;;;;;4.33;4.03;;;32.40;97.60;;;;;;5094755;28;20456;-75
2023/07/13 13:31:54;;;;;;;3.37;3.07;;;32.50;97.60;;;;;;5093749;28;20440;-76
2023/07/13 13:34:23;;;;;;;3.83;3.43;;;32.50;97.80;;;;;;5095171;28;20764;-76
2023/07/13 13:36:49;;;;;;;5.40;3.17;;;32.60;97.60;;;;;;5093216;28;21493;-82
2023/07/13 13:39:44;;;;;;;3.63;3.33;;;32.60;97.60;;;;;;5092301;28;20439;-76
2023/07/13 13:42:10;;;;;;;4.17;3.30;;;32.60;97.70;;;;;;5086872;28;20476;-76
2023/07/13 13:44:36;;;;;;;5.37;3.47;;;32.60;97.50;;;;;;5091815;28;20433;-76
2023/07/13 13:47:02;;;;;;;3.80;3.50;;;32.60;97.50;;;;;;5090046;28;20459;-82
2023/07/13 13:49:30;;;;;;;5.60;4.23;;;32.60;97.20;;;;;;5088724;28;20620;-82
2023/07/13 13:51:56;;;;;;;3.93;3.27;;;32.60;96.90;;;;;;5091268;28;20961;-82
2023/07/13 13:54:23;;;;;;;5.90;4.50;;;32.60;96.50;;;;;;5090113;28;20912;-76
2023/07/13 13:56:52;;;;;;;4.23;3.10;;;32.50;96.80;;;;;;5089939;28;20940;-82
2023/07/13 13:59:18;;;;;;;3.30;3.00;;;32.50;96.90;;;;;;5091602;28;20754;-82
2023/07/13 14:01:48;;;;;;;4.20;3.30;;;32.50;97.00;;;;;;5094673;28;20580;-82
2023/07/13 14:04:19;;;;;;;4.20;2.80;;;32.40;97.10;;;;;;5094306;28;20421;-75
2023/07/13 14:06:45;;;;;;;5.97;3.80;;;32.40;97.20;;;;;;5084469;28;20404;-76
2023/07/13 14:09:13;;;;;;;3.50;3.20;;;32.40;97.10;;;;;;5096794;28;20954;-75
2023/07/13 14:11:41;;;;;;;3.40;3.10;;;32.40;97.00;;;;;;5080445;28;20171;-82
2023/07/13 14:14:16;;;;;;;3.93;3.60;;;32.40;96.70;;;;;;5097650;28;20467;-82
2023/07/13 14:16:42;;;;;;;4.93;2.77;;;32.30;96.90;;;;;;5098757;28;20415;-75
2023/07/13 14:19:15;;;;;;;4.20;3.40;;;32.30;97.00;;;;;;5092004;28;20713;-76
2023/07/13 14:21:41;;;;;;;3.73;3.10;;;32.30;96.80;;;;;;5087241;28;20776;-76
2023/07/13 14:24:07;;;;;;;3.40;3.10;;;32.30;96.70;;;;;;5098720;28;20424;-75
2023/07/13 14:26:40;;;;;;;4.50;2.90;;;32.30;96.90;;;;;;5098103;28;20357;-75
2023/07/13 14:29:13;;;;;;;3.33;3.03;;;32.20;97.00;;;;;;5099525;28;20834;-76
2023/07/13 14:31:38;;;;;;;6.80;3.00;;;32.30;96.50;;;;;;5094125;28;20412;-83
2023/07/13 14:34:04;;;;;;;4.03;3.37;;;32.30;96.60;;;;;;5093231;28;20715;-75
2023/07/13 14:36:41;;;;;;;3.67;2.90;;;32.30;96.60;;;;;;5087575;28;20180;-82
2023/07/13 14:39:16;;;;;;;3.50;2.80;;;32.30;96.80;;;;;;5103686;28;20180;-75
2023/07/13 14:41:43;;;;;;;3.80;3.07;;;32.30;96.60;;;;;;5091077;28;20928;-79
2023/07/13 14:44:14;;;;;;;3.53;2.83;;;32.30;96.30;;;;;;5100150;28;20428;-81
2023/07/13 14:46:41;;;;;;;3.13;2.93;;;32.40;96.20;;;;;;5095905;28;20424;-83
2023/07/13 14:49:30;;;;;;;8.63;3.47;;;32.40;96.40;;;;;;5096505;28;20458;-82
2023/07/13 14:51:58;;;;;;;4.17;3.60;;;32.40;95.90;;;;;;5089988;28;20661;-82
2023/07/13 14:54:24;;;;;;;3.80;3.40;;;32.40;95.90;;;;;;5084780;28;20420;-75
2023/07/13 14:56:50;;;;;;;4.47;3.70;;;32.40;96.30;;;;;;5084190;28;20844;-82
2023/07/13 14:59:18;;;;;;;4.87;3.57;;;32.30;96.20;;;;;;5100258;28;20682;-75
2023/07/13 15:01:45;;;;;;;3.80;3.40;;;32.30;96.10;;;;;;5104807;28;20420;-82
2023/07/13 15:04:11;;;;;;;3.47;2.93;;;32.30;96.30;;;;;;5085163;28;20516;-75
2023/07/13 15:07:00;;;;;;;3.90;3.50;;;32.30;96.20;;;;;;5094334;28;20516;-75
2023/07/13 15:09:28;;;;;;;4.10;3.33;;;32.30;96.10;;;;;;5092711;28;20179;-75
2023/07/13 15:11:55;;;;;;;5.33;2.67;;;32.30;96.10;;;;;;5092966;28;20464;-82
2023/07/13 15:14:21;;;;;;;4.10;3.50;;;32.30;96.10;;;;;;5100065;28;20436;-81
2023/07/13 15:16:50;;;;;;;3.93;3.03;;;32.30;96.30;;;;;;5093828;28;20433;-81
2023/07/13 15:19:18;;;;;;;3.30;3.10;;;32.30;96.30;;;;;;5095389;28;20194;-82
2023/07/13 15:21:43;;;;;;;3.23;2.97;;;32.20;96.30;;;;;;5092786;28;20912;-81
2023/07/13 15:24:12;;;;;;;3.10;2.80;;;32.20;96.30;;;;;;5098838;28;20515;-81
2023/07/13 15:26:38;;;;;;;3.23;2.93;;;32.20;96.10;;;;;;5096581;28;20168;-82
2023/07/13 15:29:05;;;;;;;2.70;2.50;;;32.20;96.10;;;;;;5101453;28;20427;-76
2023/07/13 15:31:32;;;;;;;3.37;3.03;;;32.20;96.00;;;;;;5094652;28;20417;-76
2023/07/13 15:33:59;;;;;;;2.80;2.60;;;32.20;96.00;;;;;;5077218;28;20503;-76
2023/07/13 15:36:26;;;;;;;3.17;2.50;;;32.20;95.80;;;;;;5091012;28;20973;-82
2023/07/13 15:38:54;;;;;;;3.27;2.80;;;32.20;96.10;;;;;;5092952;28;21018;-79
2023/07/13 15:41:28;;;;;;;2.87;2.67;;;32.20;95.80;;;;;;5097262;28;20424;-76
2023/07/13 15:43:59;;;;;;;5.40;3.00;;;32.20;95.80;;;;;;5094347;28;20519;-79
2023/07/13 15:46:28;;;;;;;6.27;2.67;;;32.20;95.60;;;;;;5103346;28;20586;-75
2023/07/13 15:48:56;;;;;;;4.43;3.23;;;32.20;95.70;;;;;;5092112;28;20461;-81
2023/07/13 15:51:33;;;;;;;2.93;2.73;;;32.20;95.50;;;;;;5098743;28;20782;-77
2023/07/13 15:54:05;;;;;;;3.40;3.10;;;32.10;95.40;;;;;;5102261;28;20831;-82
2023/07/13 15:56:36;;;;;;;4.20;3.30;;;32.10;95.40;;;;;;5095187;28;20548;-76
2023/07/13 15:59:03;;;;;;;4.50;3.27;;;32.10;95.50;;;;;;5089635;28;20444;-81
2023/07/13 16:01:30;;;;;;;6.43;3.33;;;32.10;95.70;;;;;;5091125;28;20487;-81
2023/07/13 16:03:56;;;;;;;4.57;2.80;;;32.10;95.80;;;;;;5095465;28;20440;-80
2023/07/13 16:06:35;;;;;;;8.10;3.57;;;32.10;95.60;;;;;;5099152;28;20966;-80
2023/07/13 16:09:03;;;;;;;4.20;2.87;;;32.10;95.40;;;;;;5103533;28;20424;-81
2023/07/13 16:11:39;;;;;;;7.63;2.73;;;32.00;95.50;;;;;;5096362;28;20627;-77
2023/07/13 16:14:05;;;;;;;4.20;2.73;;;31.90;95.60;;;;;;5082919;28;20460;-83
2023/07/13 16:16:33;;;;;;;4.03;2.97;;;31.80;95.80;;;;;;5084065;28;20809;-75
2023/07/13 16:19:01;;;;;;;3.17;2.77;;;31.80;95.90;;;;;;5084469;28;20405;-80
2023/07/13 16:21:29;;;;;;;3.93;2.90;;;31.80;95.90;;;;;;5093814;28;20537;-81
2023/07/13 16:23:57;;;;;;;2.80;2.60;;;31.80;96.00;;;;;;5101841;28;20420;-75
2023/07/13 16:26:38;;;;;;;3.50;2.87;;;31.70;95.90;;;;;;5100402;28;20479;-75
2023/07/13 16:29:24;;;;;;;3.93;2.40;;;31.60;95.90;;;;;;5100711;28;20538;-76
2023/07/13 16:32:03;;;;;;;4.63;3.10;;;31.60;95.90;;;;;;5094935;28;20460;-75
2023/07/13 16:34:34;;;;;;;2.73;2.50;;;31.60;96.00;;;;;;5083451;28;20901;-80
2023/07/13 16:37:02;;;;;;;3.63;3.30;;;31.60;96.10;;;;;;5085218;28;20467;-76
2023/07/13 16:39:29;;;;;;;2.67;2.47;;;31.50;96.00;;;;;;5104102;28;20632;-80
2023/07/13 16:41:57;;;;;;;3.20;2.90;;;31.50;96.10;;;;;;5089330;28;20476;-75
2023/07/13 16:44:23;;;;;;;6.17;2.80;;;31.50;96.30;;;;;;5086080;28;20541;-75